createdAt,value
2018-04-25T00:00:29.269Z,14.02
2018-04-25T00:01:29.262Z,14.02
2018-04-25T00:02:29.252Z,13.96
2018-04-25T00:03:29.240Z,13.97
2018-04-25T00:04:50.236Z,13.96
2018-04-25T00:05:29.229Z,13.89
2018-04-25T00:06:29.218Z,13.95
2018-04-25T00:07:29.212Z,13.89
2018-04-25T00:08:29.192Z,13.79
2018-04-25T00:09:29.236Z,13.77
2018-04-25T00:10:50.174Z,13.73
2018-04-25T00:11:29.161Z,13.89
2018-04-25T00:12:29.153Z,13.81
2018-04-25T00:13:29.145Z,13.84
2018-04-25T00:14:29.129Z,13.91
2018-04-25T00:15:29.121Z,13.78
2018-04-25T00:16:50.114Z,13.91
2018-04-25T00:17:29.106Z,13.88
2018-04-25T00:18:29.093Z,13.92
2018-04-25T00:19:29.102Z,13.89
2018-04-25T00:20:29.084Z,13.96
2018-04-25T00:21:29.064Z,13.89
2018-04-25T00:22:50.065Z,13.91
2018-04-25T00:23:29.045Z,13.95
2018-04-25T00:24:29.109Z,13.91
2018-04-25T00:25:29.028Z,13.88
2018-04-25T00:26:29.010Z,13.81
2018-04-25T00:27:29.007Z,13.85
2018-04-25T00:28:50.000Z,13.91
2018-04-25T00:29:28.990Z,13.84
2018-04-25T00:30:28.978Z,13.85
2018-04-25T00:31:28.969Z,13.84
2018-04-25T00:32:28.958Z,13.77
2018-04-25T00:33:28.960Z,13.81
2018-04-25T00:34:49.942Z,13.87
2018-04-25T00:35:28.926Z,13.87
2018-04-25T00:36:28.912Z,13.84
2018-04-25T00:37:28.909Z,13.87
2018-04-25T00:38:28.897Z,13.82
2018-04-25T00:39:28.883Z,13.81
2018-04-25T00:40:49.886Z,13.77
2018-04-25T00:41:28.883Z,13.78
2018-04-25T00:42:28.868Z,13.75
2018-04-25T00:43:28.845Z,13.79
2018-04-25T00:44:28.911Z,13.77
2018-04-25T00:45:28.846Z,13.66
2018-04-25T00:46:49.826Z,13.63
2018-04-25T00:47:28.815Z,13.67
2018-04-25T00:48:28.805Z,13.63
2018-04-25T00:49:28.790Z,13.55
2018-04-25T00:50:28.789Z,13.52
2018-04-25T00:51:28.768Z,13.52
2018-04-25T00:52:49.759Z,13.52
2018-04-25T00:53:28.760Z,13.42
2018-04-25T00:54:28.747Z,13.54
2018-04-25T00:55:28.722Z,13.46
2018-04-25T00:56:28.737Z,13.51
2018-04-25T00:57:28.712Z,13.57
2018-04-25T00:58:49.707Z,13.51
2018-04-25T00:59:28.693Z,13.59
2018-04-25T01:00:28.682Z,13.66
2018-04-25T01:01:28.665Z,13.66
2018-04-25T01:02:28.654Z,13.70
2018-04-25T01:03:28.645Z,13.64
2018-04-25T01:04:49.649Z,13.71
2018-04-25T01:05:28.631Z,13.70
2018-04-25T01:06:28.620Z,13.60
2018-04-25T01:07:28.608Z,13.63
2018-04-25T01:08:28.599Z,13.70
2018-04-25T01:09:28.596Z,13.69
2018-04-25T01:10:49.592Z,13.66
2018-04-25T01:11:28.574Z,13.67
2018-04-25T01:12:28.562Z,13.59
2018-04-25T01:13:28.550Z,13.60
2018-04-25T01:14:28.540Z,13.62
2018-04-25T01:15:28.529Z,13.59
2018-04-25T01:16:49.535Z,13.59
2018-04-25T01:17:28.521Z,13.64
2018-04-25T01:18:28.493Z,13.60
2018-04-25T01:19:28.486Z,13.52
2018-04-25T01:20:28.480Z,13.60
2018-04-25T01:21:28.468Z,13.51
2018-04-25T01:22:49.470Z,13.57
2018-04-25T01:23:28.452Z,13.49
2018-04-25T01:24:28.442Z,13.51
2018-04-25T01:25:28.430Z,13.59
2018-04-25T01:26:28.419Z,13.49
2018-04-25T01:27:28.418Z,13.60
2018-04-25T01:28:49.416Z,13.63
2018-04-25T01:29:28.388Z,13.63
2018-04-25T01:30:28.381Z,13.63
2018-04-25T01:31:28.375Z,13.69
2018-04-25T01:32:28.351Z,13.62
2018-04-25T01:33:28.356Z,13.63
2018-04-25T01:34:49.348Z,13.59
2018-04-25T01:35:28.332Z,13.63
2018-04-25T01:36:28.323Z,13.62
2018-04-25T01:37:28.305Z,13.60
2018-04-25T01:38:28.299Z,13.55
2018-04-25T01:39:28.287Z,13.52
2018-04-25T01:40:49.283Z,13.49
2018-04-25T01:41:28.265Z,13.52
2018-04-25T01:42:28.265Z,13.52
2018-04-25T01:43:28.249Z,13.54
2018-04-25T01:44:28.244Z,13.48
2018-04-25T01:45:28.230Z,13.55
2018-04-25T01:46:49.228Z,13.48
2018-04-25T01:47:28.210Z,13.55
2018-04-25T01:48:28.207Z,13.45
2018-04-25T01:49:28.199Z,13.46
2018-04-25T01:50:28.178Z,13.51
2018-04-25T01:51:28.170Z,13.52
2018-04-25T01:52:49.162Z,13.45
2018-04-25T01:53:28.157Z,13.51
2018-04-25T01:54:28.143Z,13.44
2018-04-25T01:55:28.127Z,13.49
2018-04-25T01:56:28.127Z,13.49
2018-04-25T01:57:28.108Z,13.52
2018-04-25T01:58:49.097Z,13.55
2018-04-25T01:59:28.091Z,13.49
2018-04-25T02:00:28.089Z,13.48
2018-04-25T02:01:28.072Z,13.49
2018-04-25T02:02:28.056Z,13.54
2018-04-25T02:03:28.048Z,13.52
2018-04-25T02:04:49.054Z,13.52
2018-04-25T02:05:28.037Z,13.51
2018-04-25T02:06:28.020Z,13.51
2018-04-25T02:07:28.023Z,13.44
2018-04-25T02:08:27.992Z,13.52
2018-04-25T02:09:27.989Z,13.46
2018-04-25T02:10:48.987Z,13.44
2018-04-25T02:11:27.971Z,13.49
2018-04-25T02:12:27.960Z,13.44
2018-04-25T02:13:27.949Z,13.45
2018-04-25T02:14:27.942Z,13.44
2018-04-25T02:15:27.933Z,13.42
2018-04-25T02:16:48.931Z,13.44
2018-04-25T02:17:27.916Z,13.42
2018-04-25T02:18:27.899Z,13.42
2018-04-25T02:19:27.886Z,13.48
2018-04-25T02:20:27.877Z,13.49
2018-04-25T02:21:27.860Z,13.54
2018-04-25T02:22:48.861Z,13.51
2018-04-25T02:23:27.839Z,13.46
2018-04-25T02:24:27.838Z,13.51
2018-04-25T02:25:27.838Z,13.59
2018-04-25T02:26:27.823Z,13.52
2018-04-25T02:27:27.807Z,13.52
2018-04-25T02:28:48.806Z,13.52
2018-04-25T02:29:27.788Z,13.44
2018-04-25T02:30:27.786Z,13.46
2018-04-25T02:31:27.772Z,13.42
2018-04-25T02:32:27.756Z,13.46
2018-04-25T02:33:27.748Z,13.48
2018-04-25T02:34:48.736Z,13.48
2018-04-25T02:35:27.720Z,13.52
2018-04-25T02:36:27.719Z,13.54
2018-04-25T02:37:27.709Z,13.52
2018-04-25T02:38:27.699Z,13.63
2018-04-25T02:39:27.685Z,13.54
2018-04-25T02:40:48.673Z,13.59
2018-04-25T02:41:27.658Z,13.54
2018-04-25T02:42:27.654Z,13.51
2018-04-25T02:43:27.639Z,13.54
2018-04-25T02:44:27.630Z,13.54
2018-04-25T02:45:27.622Z,13.51
2018-04-25T02:46:48.620Z,13.59
2018-04-25T02:47:27.612Z,13.49
2018-04-25T02:48:27.603Z,13.51
2018-04-25T02:49:27.582Z,13.46
2018-04-25T02:50:27.568Z,13.46
2018-04-25T02:51:27.557Z,13.46
2018-04-25T02:52:48.556Z,13.42
2018-04-25T02:53:27.542Z,13.42
2018-04-25T02:54:27.546Z,13.26
2018-04-25T02:55:27.531Z,13.41
2018-04-25T02:56:27.524Z,13.28
2018-04-25T02:57:27.502Z,13.30
2018-04-25T02:58:48.524Z,13.30
2018-04-25T02:59:27.488Z,13.26
2018-04-25T03:00:27.477Z,13.25
2018-04-25T03:01:27.473Z,13.14
2018-04-25T03:02:27.449Z,13.14
2018-04-25T03:03:27.443Z,13.15
2018-04-25T03:04:48.443Z,13.10
2018-04-25T03:05:27.418Z,13.04
2018-04-25T03:06:27.404Z,13.03
2018-04-25T03:07:27.395Z,13.07
2018-04-25T03:08:27.382Z,13.15
2018-04-25T03:09:27.389Z,13.08
2018-04-25T03:10:48.379Z,13.07
2018-04-25T03:11:27.361Z,13.07
2018-04-25T03:12:27.343Z,12.86
2018-04-25T03:13:27.337Z,12.90
2018-04-25T03:14:27.328Z,12.89
2018-04-25T03:15:27.317Z,12.83
2018-04-25T03:16:48.339Z,12.83
2018-04-25T03:17:27.294Z,12.97
2018-04-25T03:18:27.290Z,12.89
2018-04-25T03:19:27.276Z,12.90
2018-04-25T03:20:27.261Z,12.92
2018-04-25T03:21:27.265Z,12.86
2018-04-25T03:22:48.248Z,12.97
2018-04-25T03:23:27.235Z,12.96
2018-04-25T03:24:27.232Z,12.96
2018-04-25T03:25:27.215Z,12.90
2018-04-25T03:26:27.205Z,12.82
2018-04-25T03:27:27.201Z,12.79
2018-04-25T03:28:48.185Z,12.72
2018-04-25T03:29:27.173Z,12.75
2018-04-25T03:30:27.171Z,12.72
2018-04-25T03:31:27.159Z,12.68
2018-04-25T03:32:27.134Z,12.72
2018-04-25T03:33:27.129Z,12.78
2018-04-25T03:34:48.124Z,12.74
2018-04-25T03:35:27.108Z,12.71
2018-04-25T03:36:27.099Z,12.68
2018-04-25T03:37:27.090Z,12.65
2018-04-25T03:38:27.077Z,12.60
2018-04-25T03:39:27.074Z,12.60
2018-04-25T03:40:48.071Z,12.68
2018-04-25T03:41:27.048Z,12.60
2018-04-25T03:42:27.030Z,12.71
2018-04-25T03:43:27.028Z,12.77
2018-04-25T03:44:27.028Z,12.68
2018-04-25T03:45:27.004Z,12.71
2018-04-25T03:46:48.033Z,12.68
2018-04-25T03:47:26.989Z,12.54
2018-04-25T03:48:26.973Z,12.46
2018-04-25T03:49:26.967Z,12.50
2018-04-25T03:50:26.965Z,12.52
2018-04-25T03:51:26.943Z,12.52
2018-04-25T03:52:47.947Z,12.49
2018-04-25T03:53:26.920Z,12.56
2018-04-25T03:54:26.916Z,12.49
2018-04-25T03:55:26.915Z,12.57
2018-04-25T03:56:26.897Z,12.52
2018-04-25T03:57:26.879Z,12.49
2018-04-25T03:58:47.869Z,12.53
2018-04-25T03:59:26.855Z,12.47
2018-04-25T04:00:26.861Z,12.53
2018-04-25T04:01:26.840Z,12.54
2018-04-25T04:02:26.829Z,12.53
2018-04-25T04:03:26.825Z,12.54
2018-04-25T04:04:47.843Z,12.54
2018-04-25T04:05:26.800Z,12.56
2018-04-25T04:06:26.788Z,12.56
2018-04-25T04:07:26.770Z,12.56
2018-04-25T04:08:26.781Z,12.52
2018-04-25T04:09:26.759Z,12.53
2018-04-25T04:10:47.747Z,12.41
2018-04-25T04:11:26.804Z,12.49
2018-04-25T04:12:26.721Z,12.57
2018-04-25T04:13:29.300Z,12.53
2018-04-25T04:14:26.702Z,12.59
2018-04-25T04:15:26.690Z,12.50
2018-04-25T04:16:47.690Z,12.54
2018-04-25T04:17:26.663Z,12.57
2018-04-25T04:18:26.660Z,12.42
2018-04-25T04:19:26.644Z,12.57
2018-04-25T04:20:26.635Z,12.56
2018-04-25T04:21:26.627Z,12.52
2018-04-25T04:22:47.627Z,12.47
2018-04-25T04:23:26.603Z,12.52
2018-04-25T04:24:26.593Z,12.56
2018-04-25T04:25:26.582Z,12.50
2018-04-25T04:26:26.577Z,12.45
2018-04-25T04:27:26.576Z,12.56
2018-04-25T04:28:47.558Z,12.53
2018-04-25T04:29:26.544Z,12.57
2018-04-25T04:30:26.537Z,12.52
2018-04-25T04:31:26.529Z,12.47
2018-04-25T04:32:26.512Z,12.57
2018-04-25T04:33:26.497Z,12.46
2018-04-25T04:34:47.491Z,12.56
2018-04-25T04:35:26.482Z,12.53
2018-04-25T04:36:26.465Z,12.54
2018-04-25T04:37:26.453Z,12.52
2018-04-25T04:38:26.440Z,12.52
2018-04-25T04:39:26.436Z,12.46
2018-04-25T04:40:47.426Z,12.46
2018-04-25T04:41:26.427Z,12.41
2018-04-25T04:42:26.409Z,12.29
2018-04-25T04:43:26.400Z,12.34
2018-04-25T04:44:26.392Z,12.28
2018-04-25T04:45:26.370Z,12.24
2018-04-25T04:46:47.370Z,12.29
2018-04-25T04:47:26.348Z,12.17
2018-04-25T04:48:26.337Z,12.20
2018-04-25T04:49:26.351Z,12.05
2018-04-25T04:50:26.329Z,12.02
2018-04-25T04:51:26.319Z,11.98
2018-04-25T04:52:47.306Z,12.01
2018-04-25T04:53:26.295Z,12.04
2018-04-25T04:54:26.280Z,12.01
2018-04-25T04:55:26.266Z,11.99
2018-04-25T04:56:26.258Z,11.95
2018-04-25T04:57:26.248Z,11.98
2018-04-25T04:58:47.238Z,11.95
2018-04-25T04:59:26.219Z,11.96
2018-04-25T05:00:26.214Z,12.02
2018-04-25T05:01:26.212Z,12.05
2018-04-25T05:02:26.198Z,12.12
2018-04-25T05:03:26.180Z,12.12
2018-04-25T05:04:47.177Z,12.04
2018-04-25T05:05:26.157Z,12.04
2018-04-25T05:06:26.151Z,12.09
2018-04-25T05:07:26.143Z,12.13
2018-04-25T05:08:26.151Z,12.10
2018-04-25T05:09:26.124Z,12.09
2018-04-25T05:10:47.117Z,12.12
2018-04-25T05:11:26.094Z,12.13
2018-04-25T05:12:26.091Z,12.24
2018-04-25T05:13:26.104Z,12.17
2018-04-25T05:14:26.058Z,12.27
2018-04-25T05:15:26.052Z,12.29
2018-04-25T05:16:47.063Z,12.32
2018-04-25T05:17:26.049Z,12.34
2018-04-25T05:18:26.017Z,12.29
2018-04-25T05:19:26.016Z,12.27
2018-04-25T05:20:26.015Z,12.32
2018-04-25T05:21:25.988Z,12.27
2018-04-25T05:22:46.994Z,12.24
2018-04-25T05:23:25.966Z,12.38
2018-04-25T05:24:25.983Z,12.28
2018-04-25T05:25:25.943Z,12.34
2018-04-25T05:26:25.930Z,12.35
2018-04-25T05:27:25.922Z,12.31
2018-04-25T05:28:46.920Z,12.34
2018-04-25T05:29:25.909Z,12.29
2018-04-25T05:30:25.889Z,12.41
2018-04-25T05:31:25.889Z,12.29
2018-04-25T05:32:25.880Z,12.35
2018-04-25T05:33:25.877Z,12.42
2018-04-25T05:34:46.854Z,12.45
2018-04-25T05:35:25.839Z,12.39
2018-04-25T05:36:25.825Z,12.42
2018-04-25T05:37:25.816Z,12.41
2018-04-25T05:38:25.800Z,12.52
2018-04-25T05:39:25.798Z,12.45
2018-04-25T05:40:46.792Z,12.50
2018-04-25T05:41:25.774Z,12.42
2018-04-25T05:42:25.764Z,12.32
2018-04-25T05:43:25.754Z,12.29
2018-04-25T05:44:25.742Z,12.27
2018-04-25T05:45:25.748Z,12.34
2018-04-25T05:46:46.744Z,12.24
2018-04-25T05:47:25.707Z,12.28
2018-04-25T05:48:25.751Z,12.32
2018-04-25T05:49:25.682Z,12.32
2018-04-25T05:50:25.671Z,12.35
2018-04-25T05:51:25.659Z,12.38
2018-04-25T05:52:46.651Z,12.27
2018-04-25T05:53:25.644Z,12.32
2018-04-25T05:54:25.636Z,12.28
2018-04-25T05:55:25.632Z,12.24
2018-04-25T05:56:25.623Z,12.23
2018-04-25T05:57:25.622Z,12.35
2018-04-25T05:58:46.596Z,12.29
2018-04-25T05:59:25.580Z,12.38
2018-04-25T06:00:25.566Z,12.37
2018-04-25T06:01:25.569Z,12.47
2018-04-25T06:02:25.553Z,12.41
2018-04-25T06:03:25.533Z,12.32
2018-04-25T06:04:46.527Z,12.34
2018-04-25T06:05:25.513Z,12.31
2018-04-25T06:06:25.503Z,12.38
2018-04-25T06:07:25.491Z,12.27
2018-04-25T06:08:25.487Z,12.29
2018-04-25T06:09:25.474Z,12.37
2018-04-25T06:10:46.472Z,12.37
2018-04-25T06:11:25.454Z,12.37
2018-04-25T06:12:25.442Z,12.23
2018-04-25T06:13:25.432Z,12.23
2018-04-25T06:14:25.421Z,12.23
2018-04-25T06:15:25.414Z,12.28
2018-04-25T06:16:46.399Z,12.29
2018-04-25T06:17:25.400Z,12.23
2018-04-25T06:18:25.372Z,12.21
2018-04-25T06:19:26.021Z,12.32
2018-04-25T06:20:25.357Z,12.27
2018-04-25T06:21:25.344Z,12.49
2018-04-25T06:22:46.332Z,12.49
2018-04-25T06:23:25.318Z,12.68
2018-04-25T06:24:25.312Z,12.86
2018-04-25T06:25:25.305Z,12.89
2018-04-25T06:26:25.298Z,13.08
2018-04-25T06:27:25.301Z,13.19
2018-04-25T06:28:46.273Z,13.29
2018-04-25T06:29:25.255Z,13.49
2018-04-25T06:30:25.253Z,13.64
2018-04-25T06:31:25.241Z,13.75
2018-04-25T06:32:25.229Z,13.92
2018-04-25T06:33:25.219Z,14.03
2018-04-25T06:34:46.217Z,14.07
2018-04-25T06:35:25.261Z,14.25
2018-04-25T06:36:25.189Z,14.32
2018-04-25T06:37:25.179Z,14.35
2018-04-25T06:38:25.175Z,14.46
2018-04-25T06:39:25.181Z,14.58
2018-04-25T06:40:46.150Z,14.68
2018-04-25T06:41:25.136Z,14.83
2018-04-25T06:42:25.129Z,14.95
2018-04-25T06:43:25.120Z,15.06
2018-04-25T06:44:25.106Z,15.07
2018-04-25T06:45:25.095Z,15.13
2018-04-25T06:46:46.096Z,15.25
2018-04-25T06:47:25.084Z,15.23
2018-04-25T06:48:25.063Z,15.34
2018-04-25T06:49:25.052Z,15.38
2018-04-25T06:50:25.039Z,15.50
2018-04-25T06:51:25.032Z,15.67
2018-04-25T06:52:46.030Z,15.62
2018-04-25T06:53:25.014Z,15.82
2018-04-25T06:54:25.012Z,15.83
2018-04-25T06:55:25.006Z,15.78
2018-04-25T06:56:24.984Z,16.02
2018-04-25T06:57:24.976Z,16.05
2018-04-25T06:58:45.994Z,16.08
2018-04-25T06:59:24.960Z,16.05
2018-04-25T07:00:24.954Z,16.25
2018-04-25T07:01:24.944Z,16.25
2018-04-25T07:02:24.941Z,16.31
2018-04-25T07:03:24.922Z,16.39
2018-04-25T07:04:45.994Z,16.34
2018-04-25T07:05:24.904Z,16.50
2018-04-25T07:06:24.898Z,16.58
2018-04-25T07:07:24.884Z,16.64
2018-04-25T07:08:24.875Z,16.73
2018-04-25T07:09:24.864Z,16.73
2018-04-25T07:10:45.872Z,16.88
2018-04-25T07:11:24.856Z,16.83
2018-04-25T07:12:24.836Z,16.91
2018-04-25T07:13:24.913Z,16.98
2018-04-25T07:14:24.843Z,17.06
2018-04-25T07:15:24.814Z,17.11
2018-04-25T07:16:45.809Z,17.21
2018-04-25T07:17:24.789Z,17.26
2018-04-25T07:18:24.791Z,17.28
2018-04-25T07:19:24.781Z,17.31
2018-04-25T07:20:24.770Z,17.41
2018-04-25T07:21:24.762Z,17.48
2018-04-25T07:22:45.755Z,17.36
2018-04-25T07:23:24.745Z,17.40
2018-04-25T07:24:24.742Z,17.54
2018-04-25T07:25:24.736Z,17.49
2018-04-25T07:26:24.724Z,17.58
2018-04-25T07:27:24.718Z,17.51
2018-04-25T07:28:45.712Z,17.58
2018-04-25T07:29:24.701Z,17.68
2018-04-25T07:30:24.695Z,17.56
2018-04-25T07:31:24.685Z,17.63
2018-04-25T07:32:24.673Z,17.72
2018-04-25T07:33:24.663Z,17.74
2018-04-25T07:34:45.665Z,17.78
2018-04-25T07:35:24.722Z,17.90
2018-04-25T07:36:24.635Z,17.99
2018-04-25T07:37:24.626Z,18.02
2018-04-25T07:38:24.620Z,18.05
2018-04-25T07:39:24.614Z,18.08
2018-04-25T07:40:45.638Z,18.05
2018-04-25T07:41:24.600Z,18.02
2018-04-25T07:42:24.586Z,18.07
2018-04-25T07:43:24.578Z,18.05
2018-04-25T07:44:24.567Z,17.92
2018-04-25T07:45:24.561Z,18.02
2018-04-25T07:46:45.565Z,17.90
2018-04-25T07:47:24.553Z,17.93
2018-04-25T07:48:24.558Z,17.77
2018-04-25T07:49:24.541Z,17.75
2018-04-25T07:50:24.523Z,17.70
2018-04-25T07:51:24.513Z,17.64
2018-04-25T07:52:45.510Z,17.55
2018-04-25T07:53:24.498Z,17.70
2018-04-25T07:54:24.494Z,17.79
2018-04-25T07:55:24.480Z,17.86
2018-04-25T07:56:24.470Z,17.87
2018-04-25T07:57:24.464Z,18.03
2018-04-25T07:58:45.477Z,18.05
2018-04-25T07:59:24.457Z,18.10
2018-04-25T08:00:24.440Z,18.15
2018-04-25T08:01:24.446Z,18.26
2018-04-25T08:02:24.431Z,18.32
2018-04-25T08:03:24.429Z,18.39
2018-04-25T08:04:45.421Z,18.51
2018-04-25T08:05:24.409Z,18.60
2018-04-25T08:06:24.399Z,18.67
2018-04-25T08:07:24.397Z,18.72
2018-04-25T08:08:24.383Z,18.76
2018-04-25T08:09:24.378Z,18.72
2018-04-25T08:10:45.376Z,18.82
2018-04-25T08:11:24.360Z,18.87
2018-04-25T08:12:24.421Z,18.87
2018-04-25T08:13:24.349Z,19.04
2018-04-25T08:14:24.338Z,19.13
2018-04-25T08:15:24.338Z,19.13
2018-04-25T08:16:45.331Z,19.18
2018-04-25T08:17:24.321Z,19.14
2018-04-25T08:18:24.317Z,19.26
2018-04-25T08:19:24.307Z,19.26
2018-04-25T08:20:24.297Z,19.28
2018-04-25T08:21:24.291Z,19.28
2018-04-25T08:22:45.288Z,19.41
2018-04-25T08:23:24.275Z,19.44
2018-04-25T08:24:24.270Z,19.37
2018-04-25T08:25:24.259Z,19.56
2018-04-25T08:26:24.256Z,19.47
2018-04-25T08:27:24.242Z,19.54
2018-04-25T08:28:45.246Z,19.48
2018-04-25T08:29:24.231Z,19.39
2018-04-25T08:30:24.229Z,19.33
2018-04-25T08:31:24.215Z,19.48
2018-04-25T08:32:24.210Z,19.46
2018-04-25T08:33:24.228Z,19.51
2018-04-25T08:34:45.204Z,19.56
2018-04-25T08:35:24.186Z,19.65
2018-04-25T08:36:24.180Z,19.78
2018-04-25T08:37:24.190Z,19.86
2018-04-25T08:38:24.171Z,19.78
2018-04-25T08:39:24.168Z,19.92
2018-04-25T08:40:45.159Z,19.96
2018-04-25T08:41:24.153Z,19.91
2018-04-25T08:42:24.142Z,20.05
2018-04-25T08:43:24.138Z,20.10
2018-04-25T08:44:24.132Z,20.13
2018-04-25T08:45:24.129Z,20.23
2018-04-25T08:46:45.121Z,20.17
2018-04-25T08:47:24.108Z,20.18
2018-04-25T08:48:24.107Z,20.10
2018-04-25T08:49:24.097Z,20.06
2018-04-25T08:50:24.096Z,20.10
2018-04-25T08:51:24.086Z,20.06
2018-04-25T08:52:45.138Z,20.03
2018-04-25T08:53:24.069Z,20.01
2018-04-25T08:54:24.062Z,20.11
2018-04-25T08:55:24.053Z,20.16
2018-04-25T08:56:24.043Z,20.21
2018-04-25T08:57:24.046Z,20.24
2018-04-25T08:58:45.046Z,20.21
2018-04-25T08:59:24.037Z,20.33
2018-04-25T09:00:24.033Z,20.38
2018-04-25T09:01:24.016Z,20.47
2018-04-25T09:02:24.010Z,20.52
2018-04-25T09:03:23.998Z,20.72
2018-04-25T09:04:45.009Z,20.73
2018-04-25T09:05:23.999Z,20.73
2018-04-25T09:06:23.992Z,20.74
2018-04-25T09:07:23.973Z,20.72
2018-04-25T09:08:23.973Z,20.74
2018-04-25T09:09:23.965Z,20.76
2018-04-25T09:10:44.993Z,20.67
2018-04-25T09:11:23.955Z,20.52
2018-04-25T09:12:23.948Z,20.51
2018-04-25T09:13:23.938Z,20.55
2018-04-25T09:14:23.932Z,20.57
2018-04-25T09:15:23.936Z,20.72
2018-04-25T09:16:44.938Z,20.85
2018-04-25T09:17:23.914Z,20.84
2018-04-25T09:18:23.908Z,20.88
2018-04-25T09:19:23.898Z,21.13
2018-04-25T09:20:23.901Z,21.16
2018-04-25T09:21:23.889Z,21.21
2018-04-25T09:22:44.923Z,21.13
2018-04-25T09:23:23.882Z,21.03
2018-04-25T09:24:23.872Z,20.99
2018-04-25T09:25:23.860Z,20.94
2018-04-25T09:26:23.872Z,20.87
2018-04-25T09:27:23.852Z,20.94
2018-04-25T09:28:44.856Z,20.85
2018-04-25T09:29:23.835Z,20.84
2018-04-25T09:30:23.828Z,20.92
2018-04-25T09:31:23.817Z,20.79
2018-04-25T09:32:23.826Z,20.82
2018-04-25T09:33:23.815Z,20.70
2018-04-25T09:34:44.814Z,20.69
2018-04-25T09:35:23.808Z,20.73
2018-04-25T09:36:23.801Z,20.79
2018-04-25T09:37:23.794Z,20.77
2018-04-25T09:38:23.784Z,20.87
2018-04-25T09:39:23.780Z,20.94
2018-04-25T09:40:44.780Z,20.92
2018-04-25T09:41:23.841Z,20.84
2018-04-25T09:42:23.766Z,20.74
2018-04-25T09:43:23.792Z,20.82
2018-04-25T09:44:23.744Z,20.82
2018-04-25T09:45:23.744Z,20.87
2018-04-25T09:46:44.754Z,20.85
2018-04-25T09:47:23.729Z,20.89
2018-04-25T09:48:23.723Z,20.89
2018-04-25T09:49:23.726Z,20.98
2018-04-25T09:50:23.722Z,21.04
2018-04-25T09:51:23.705Z,21.04
2018-04-25T09:52:44.712Z,21.07
2018-04-25T09:53:23.691Z,21.16
2018-04-25T09:54:23.694Z,21.13
2018-04-25T09:55:23.680Z,21.16
2018-04-25T09:56:23.682Z,21.27
2018-04-25T09:57:23.670Z,21.28
2018-04-25T09:58:44.679Z,21.27
2018-04-25T09:59:23.663Z,21.47
2018-04-25T10:00:23.649Z,21.47
2018-04-25T10:01:23.655Z,21.54
2018-04-25T10:02:23.659Z,21.65
2018-04-25T10:03:23.635Z,21.71
2018-04-25T10:04:44.636Z,21.80
2018-04-25T10:05:23.630Z,21.80
2018-04-25T10:06:23.615Z,21.82
2018-04-25T10:07:23.628Z,21.83
2018-04-25T10:08:23.605Z,21.86
2018-04-25T10:09:23.605Z,21.90
2018-04-25T10:10:44.660Z,22.09
2018-04-25T10:11:23.588Z,22.10
2018-04-25T10:12:23.592Z,22.14
2018-04-25T10:13:23.586Z,22.25
2018-04-25T10:14:23.572Z,22.28
2018-04-25T10:15:23.570Z,22.39
2018-04-25T10:16:44.566Z,22.42
2018-04-25T10:17:23.596Z,22.47
2018-04-25T10:18:23.543Z,22.42
2018-04-25T10:19:23.558Z,22.55
2018-04-25T10:20:23.539Z,22.54
2018-04-25T10:21:23.531Z,22.46
2018-04-25T10:22:44.529Z,22.36
2018-04-25T10:23:23.520Z,22.39
2018-04-25T10:24:23.517Z,22.35
2018-04-25T10:25:23.512Z,22.28
2018-04-25T10:26:23.506Z,22.15
2018-04-25T10:27:23.502Z,22.18
2018-04-25T10:28:44.500Z,22.27
2018-04-25T10:29:23.495Z,22.21
2018-04-25T10:30:23.490Z,22.21
2018-04-25T10:31:23.477Z,22.22
2018-04-25T10:32:23.481Z,22.28
2018-04-25T10:33:23.464Z,22.15
2018-04-25T10:34:44.474Z,22.10
2018-04-25T10:35:23.465Z,22.09
2018-04-25T10:36:23.445Z,22.17
2018-04-25T10:37:23.444Z,22.37
2018-04-25T10:38:23.446Z,22.31
2018-04-25T10:39:23.451Z,22.52
2018-04-25T10:40:44.441Z,22.54
2018-04-25T10:41:23.424Z,22.51
2018-04-25T10:42:23.421Z,22.58
2018-04-25T10:43:23.421Z,22.62
2018-04-25T10:44:23.406Z,22.76
2018-04-25T10:45:23.401Z,22.80
2018-04-25T10:46:44.415Z,22.79
2018-04-25T10:47:23.396Z,22.85
2018-04-25T10:48:23.392Z,22.95
2018-04-25T10:49:23.390Z,23.12
2018-04-25T10:50:23.383Z,23.13
2018-04-25T10:51:23.385Z,23.17
2018-04-25T10:52:44.425Z,23.31
2018-04-25T10:53:23.372Z,23.32
2018-04-25T10:54:23.368Z,23.36
2018-04-25T10:55:23.441Z,23.28
2018-04-25T10:56:23.348Z,23.31
2018-04-25T10:57:23.351Z,23.13
2018-04-25T10:58:44.353Z,23.05
2018-04-25T10:59:23.337Z,23.15
2018-04-25T11:00:23.335Z,23.36
2018-04-25T11:01:23.319Z,23.43
2018-04-25T11:02:23.334Z,23.55
2018-04-25T11:03:23.317Z,23.65
2018-04-25T11:04:44.315Z,23.61
2018-04-25T11:05:23.306Z,23.75
2018-04-25T11:06:23.305Z,23.55
2018-04-25T11:07:23.392Z,23.31
2018-04-25T11:08:23.371Z,23.31
2018-04-25T11:09:23.300Z,23.05
2018-04-25T11:10:44.295Z,22.92
2018-04-25T11:11:23.284Z,22.95
2018-04-25T11:12:23.283Z,22.92
2018-04-25T11:13:23.269Z,23.00
2018-04-25T11:14:23.275Z,22.82
2018-04-25T11:15:23.259Z,22.83
2018-04-25T11:16:44.271Z,22.88
2018-04-25T11:17:23.247Z,22.97
2018-04-25T11:18:23.241Z,22.98
2018-04-25T11:19:23.249Z,23.07
2018-04-25T11:20:23.242Z,23.12
2018-04-25T11:21:23.241Z,23.12
2018-04-25T11:22:44.232Z,23.15
2018-04-25T11:23:23.229Z,23.10
2018-04-25T11:24:23.219Z,23.07
2018-04-25T11:25:23.211Z,23.07
2018-04-25T11:26:23.212Z,23.15
2018-04-25T11:27:23.213Z,23.10
2018-04-25T11:28:44.206Z,23.04
2018-04-25T11:29:23.188Z,23.02
2018-04-25T11:30:23.192Z,23.01
2018-04-25T11:31:23.180Z,23.20
2018-04-25T11:32:23.191Z,23.17
2018-04-25T11:33:23.172Z,23.19
2018-04-25T11:34:44.182Z,23.25
2018-04-25T11:35:23.172Z,23.23
2018-04-25T11:36:23.164Z,23.25
2018-04-25T11:37:23.148Z,23.31
2018-04-25T11:38:23.149Z,23.22
2018-04-25T11:39:23.155Z,23.28
2018-04-25T11:40:44.161Z,23.23
2018-04-25T11:41:23.137Z,23.36
2018-04-25T11:42:23.128Z,23.38
2018-04-25T11:43:23.134Z,23.65
2018-04-25T11:44:23.120Z,23.54
2018-04-25T11:45:23.121Z,23.66
2018-04-25T11:46:44.123Z,23.63
2018-04-25T11:47:23.119Z,23.54
2018-04-25T11:48:23.107Z,23.42
2018-04-25T11:49:23.099Z,23.46
2018-04-25T11:50:23.111Z,23.51
2018-04-25T11:51:23.095Z,23.61
2018-04-25T11:52:44.103Z,23.73
2018-04-25T11:53:23.076Z,23.72
2018-04-25T11:54:23.082Z,23.73
2018-04-25T11:55:23.078Z,23.70
2018-04-25T11:56:23.072Z,23.54
2018-04-25T11:57:23.064Z,23.57
2018-04-25T11:58:44.064Z,23.80
2018-04-25T11:59:23.053Z,23.91
2018-04-25T12:00:23.044Z,24.02
2018-04-25T12:01:23.052Z,24.12
2018-04-25T12:02:23.041Z,24.16
2018-04-25T12:03:23.051Z,24.08
2018-04-25T12:04:44.037Z,24.05
2018-04-25T12:05:23.041Z,23.87
2018-04-25T12:06:23.033Z,23.80
2018-04-25T12:07:23.019Z,23.80
2018-04-25T12:08:23.025Z,23.83
2018-04-25T12:09:23.010Z,23.87
2018-04-25T12:10:44.022Z,23.84
2018-04-25T12:11:23.019Z,23.95
2018-04-25T12:12:22.994Z,24.09
2018-04-25T12:13:23.078Z,24.12
2018-04-25T12:14:22.989Z,24.09
2018-04-25T12:15:22.987Z,24.12
2018-04-25T12:16:43.985Z,24.06
2018-04-25T12:17:22.978Z,24.15
2018-04-25T12:18:22.971Z,24.13
2018-04-25T12:19:22.974Z,23.90
2018-04-25T12:20:22.970Z,23.68
2018-04-25T12:21:22.955Z,23.73
2018-04-25T12:22:43.970Z,23.63
2018-04-25T12:23:22.965Z,23.68
2018-04-25T12:24:22.987Z,23.88
2018-04-25T12:25:22.947Z,23.94
2018-04-25T12:26:22.951Z,24.09
2018-04-25T12:27:22.933Z,24.12
2018-04-25T12:28:43.949Z,24.18
2018-04-25T12:29:22.931Z,24.35
2018-04-25T12:30:22.923Z,24.53
2018-04-25T12:31:22.918Z,24.67
2018-04-25T12:32:22.915Z,24.71
2018-04-25T12:33:22.898Z,24.85
2018-04-25T12:34:43.917Z,24.90
2018-04-25T12:35:22.900Z,24.93
2018-04-25T12:36:22.898Z,24.98
2018-04-25T12:37:22.895Z,24.96
2018-04-25T12:38:22.894Z,24.98
2018-04-25T12:39:22.880Z,24.85
2018-04-25T12:40:43.898Z,24.81
2018-04-25T12:41:22.893Z,24.76
2018-04-25T12:42:22.880Z,24.81
2018-04-25T12:43:22.873Z,24.85
2018-04-25T12:44:22.875Z,24.85
2018-04-25T12:45:22.860Z,24.81
2018-04-25T12:46:43.881Z,24.87
2018-04-25T12:47:22.852Z,24.95
2018-04-25T12:48:22.876Z,25.08
2018-04-25T12:49:22.851Z,25.14
2018-04-25T12:50:22.855Z,25.06
2018-04-25T12:51:22.843Z,24.98
2018-04-25T12:52:43.851Z,24.91